Latest Weather Observations for Gelantipy

IDV60801

Issued at 4:52 am EST Wednesday 17 July 2019 (issued every 10 minutes, with the page automatically refreshed every 10 minutes)

About weather observations | Map of weather stations | Latest weather observations for VIC | Other Formats
Station Details ID: 084142 Name: GELANTIPY Lat: -37.22 Lon: 148.26 Height: 755.0 m
Data from the previous 72 hours. | See also: Recent months at Gelantipy
Date/Time
EST
Temp
°C
App
Temp
°C
Dew
Point
°C
Rel
Hum
%
Delta-T
°C
Wind Press
QNH
hPa
Press
MSL
hPa
Rain since
9am
mm
Dir  Spd
km/h
Gust
km/h
Spd
kts
Gust
kts
17/04:30am 2.3 -1.7 0.7 89 0.6 N 11 15 6 8 1015.4 1016.5 0.0
17/04:00am 3.1 -0.1 0.5 83 1.0 N 7 9 4 5 1015.6 1016.6 0.0
17/03:30am 3.2 -0.5 0.1 80 1.2 N 9 13 5 7 1015.9 1016.9 0.0
17/03:00am 5.4 2.5 1.5 76 1.6 WSW 6 7 3 4 1016.2 1017.2 0.0
17/02:30am 6.0 3.0 1.7 74 1.8 WNW 7 11 4 6 1016.5 1017.6 0.0
17/02:00am 5.8 2.8 1.7 75 1.7 WNW 7 13 4 7 1016.8 1017.9 0.0
17/01:30am 6.1 2.7 1.8 74 1.8 WSW 9 13 5 7 1017.0 1018.0 0.0
17/01:00am 6.0 1.8 1.9 75 1.7 WSW 13 20 7 11 1017.2 1018.2 0.0
17/12:30am 6.1 1.6 2.2 76 1.7 W 15 20 8 11 1017.5 1018.6 0.0
17/12:00am 5.7 2.4 2.7 81 1.3 W 9 13 5 7 1017.6 1018.7 0.0
 
Date/Time
EST
Temp
°C
App
Temp
°C
Dew
Point
°C
Rel
Hum
%
Delta-T
°C
Wind Press
QNH
hPa
Press
MSL
hPa
Rain since
9am
mm
Dir  Spd
km/h
Gust
km/h
Spd
kts
Gust
kts
16/11:30pm 6.0 3.5 3.5 84 1.1 WSW 6 7 3 4 1017.9 1019.0 0.0
16/11:00pm 6.5 3.3 3.3 80 1.4 SSW 9 15 5 8 1018.1 1019.2 0.0
16/10:30pm 7.1 3.6 3.3 77 1.7 SSW 11 15 6 8 1018.3 1019.4 0.0
16/10:00pm 7.9 3.2 3.0 71 2.2 SW 17 28 9 15 1018.3 1019.4 0.0
16/09:30pm 8.5 2.8 2.7 67 2.6 WSW 22 37 12 20 1018.3 1019.4 0.0
16/09:00pm 8.9 3.2 2.7 65 2.7 SW 22 32 12 17 1018.3 1019.4 0.0
16/08:42pm 9.1 2.3 3.1 66 2.7 SW 28 46 15 25 1018.5 1019.5 0.0
16/08:30pm 9.1 3.0 2.9 65 2.8 SW 24 35 13 19 1018.3 1019.4 0.0
16/08:08pm 9.1 1.9 3.1 66 2.7 SW 30 48 16 26 1018.3 1019.4 0.0
16/08:00pm 9.2 2.0 3.2 66 2.7 SW 30 46 16 25 1018.3 1019.4 0.0
16/07:58pm 9.1 2.3 3.1 66 2.7 SW 28 46 15 25 1018.3 1019.4 0.0
16/07:30pm 9.1 3.1 3.1 66 2.7 SW 24 41 13 22 1018.1 1019.2 0.0
16/07:00pm 9.3 2.5 3.3 66 2.7 SW 28 41 15 22 1018.1 1019.2 0.0
16/06:30pm 9.5 3.9 3.3 65 2.8 WSW 22 43 12 23 1017.8 1018.9 0.0
16/06:00pm 9.3 4.7 3.5 67 2.6 SW 17 26 9 14 1017.7 1018.8 0.0
16/05:30pm 9.5 3.9 3.5 66 2.7 WSW 22 33 12 18 1017.4 1018.4 0.0
16/05:00pm 9.5 4.4 3.3 65 2.8 SW 19 28 10 15 1017.4 1018.4 0.0
16/04:30pm 9.7 4.1 3.4 65 2.9 WSW 22 28 12 15 1017.2 1018.2 0.0
16/04:00pm 10.0 3.2 3.1 62 3.1 WSW 28 39 15 21 1017.1 1018.1 0.0
16/03:30pm 10.1 3.0 3.6 64 3.0 WSW 30 48 16 26 1017.2 1018.2 0.0
16/03:12pm 10.2 3.0 2.8 60 3.3 WSW 30 57 16 31 1017.0 1018.0 0.0
16/03:00pm 10.2 4.6 3.3 62 3.1 WSW 22 35 12 19 1017.0 1018.0 0.0
16/02:30pm 10.2 3.9 3.7 64 3.0 SW 26 43 14 23 1017.0 1018.0 0.0
16/02:00pm 10.3 3.9 3.3 62 3.2 WSW 26 39 14 21 1017.1 1018.1 0.0
16/01:30pm 10.5 4.2 3.5 62 3.2 WSW 26 46 14 25 1017.0 1018.0 0.0
16/01:00pm 10.3 3.5 3.1 61 3.3 WSW 28 43 15 23 1017.3 1018.3 0.0
16/12:30pm 10.1 3.3 3.2 62 3.1 SW 28 41 15 22 1017.8 1018.9 0.0
16/12:18pm 10.3 2.8 3.3 62 3.2 SW 32 50 17 27 1017.8 1018.9 0.0
16/12:15pm 9.9 2.6 2.7 61 3.2 SW 30 50 16 27 1017.8 - 0.0
16/12:00pm 9.9 1.8 3.0 62 3.1 WSW 35 46 19 25 1017.9 1019.0 0.0
16/11:30am 9.1 1.4 2.4 63 3.0 WSW 32 52 17 28 1018.1 1019.2 0.0
16/11:17am 9.1 2.1 1.8 60 3.2 SW 28 46 15 25 1018.3 1019.4 0.0
16/11:10am 9.1 1.7 1.8 60 3.2 WSW 30 48 16 26 1018.3 - 0.0
16/11:00am 9.0 1.2 1.9 61 3.1 SW 32 44 17 24 1018.2 1019.3 0.0
16/10:30am 8.5 2.6 1.9 63 2.9 SW 22 37 12 20 1018.7 1019.8 0.0
16/10:00am 7.9 3.1 2.4 68 2.4 S 17 28 9 15 1018.8 1019.9 0.0
16/09:30am 7.3 3.2 2.4 71 2.1 SSW 13 22 7 12 1018.5 1019.5 0.0
16/09:00am 6.3 3.0 2.4 76 1.7 SSW 9 17 5 9 1018.0 1019.1 0.0
16/08:30am 4.3 1.2 1.2 80 1.3 SSW 7 11 4 6 1017.6 1018.7 0.0
16/08:00am 3.3 1.1 1.0 85 0.9 S 2 7 1 4 1017.6 1018.7 0.0
16/07:30am 3.4 0.7 0.6 82 1.1 NE 4 7 2 4 1017.6 1018.7 0.0
16/07:00am 4.0 2.2 1.2 82 1.1 CALM 0 0 0 0 1017.2 1018.2 0.0
16/06:30am 3.7 1.9 0.9 82 1.1 CALM 0 0 0 0 1017.3 1018.3 0.0
16/06:00am 4.1 1.5 1.0 80 1.3 ESE 4 7 2 4 1017.1 1018.1 0.0
16/05:30am 4.3 0.3 0.6 77 1.5 SW 11 17 6 9 1016.5 1017.6 0.0
16/05:00am 5.5 2.5 0.7 71 2.0 S 6 7 3 4 1016.6 1017.7 0.0
16/04:30am 5.8 1.8 0.4 68 2.2 WSW 11 19 6 10 1016.5 1017.6 0.0
16/04:00am 6.7 1.3 1.0 67 2.4 SW 19 26 10 14 1016.6 1017.7 0.0
16/03:30am 6.7 2.4 1.2 68 2.3 SW 13 20 7 11 1016.7 1017.8 0.0
16/03:00am 7.1 2.1 1.4 67 2.4 SW 17 26 9 14 1016.5 1017.6 0.0
16/02:30am 7.2 1.3 1.7 68 2.3 WSW 22 28 12 15 1016.6 1017.7 0.0
16/02:00am 6.9 1.0 1.8 70 2.2 WSW 22 33 12 18 1017.1 1018.1 0.0
16/01:30am 6.3 1.7 1.8 73 1.9 SW 15 24 8 13 1017.3 1018.3 0.0
16/01:00am 6.8 1.5 2.1 72 2.0 WSW 19 28 10 15 1017.3 1018.3 0.0
16/12:30am 6.6 1.3 1.9 72 2.0 WSW 19 26 10 14 1017.4 1018.4 0.0
16/12:00am 7.2 2.7 1.9 69 2.3 SW 15 24 8 13 1017.4 1018.4 0.0
 
Date/Time
EST
Temp
°C
App
Temp
°C
Dew
Point
°C
Rel
Hum
%
Delta-T
°C
Wind Press
QNH
hPa
Press
MSL
hPa
Rain since
9am
mm
Dir  Spd
km/h
Gust
km/h
Spd
kts
Gust
kts
15/11:30pm 7.0 2.8 1.5 68 2.3 WSW 13 20 7 11 1017.5 1018.6 0.0
15/11:00pm 7.5 1.9 1.1 64 2.7 WSW 20 28 11 15 1017.8 1018.9 0.0
15/10:30pm 7.9 2.3 1.5 64 2.7 WSW 20 32 11 17 1017.6 1018.7 0.0
15/10:00pm 7.8 2.2 1.2 63 2.8 WSW 20 30 11 16 1017.5 1018.6 0.0
15/09:30pm 8.1 1.9 1.9 65 2.7 WSW 24 30 13 16 1017.1 1018.1 0.0
15/09:00pm 8.4 3.0 2.2 65 2.7 WSW 20 32 11 17 1017.3 1018.3 0.0
15/08:30pm 7.8 1.9 1.6 65 2.7 WSW 22 32 12 17 1017.5 1018.6 0.0
15/08:00pm 7.9 2.4 1.7 65 2.7 WSW 20 32 11 17 1017.5 1018.6 0.0
15/07:30pm 7.1 2.5 1.8 69 2.3 SW 15 28 8 15 1017.4 1018.4 0.0
15/07:00pm 6.4 3.4 1.9 73 1.9 SSW 7 13 4 7 1017.3 1018.3 0.0
15/06:30pm 6.6 3.2 1.9 72 2.0 WSW 9 17 5 9 1016.8 1017.9 0.0
15/06:00pm 6.6 2.9 2.1 73 1.9 SW 11 20 6 11 1016.7 1017.8 0.0
15/05:30pm 6.5 3.5 2.2 74 1.8 SW 7 13 4 7 1017.1 1018.1 0.0
15/05:00pm 7.0 3.6 1.7 69 2.3 SW 9 15 5 8 1017.0 1018.0 0.0
15/04:30pm 7.3 2.4 1.8 68 2.4 SW 17 22 9 12 1016.7 1017.8 0.0
15/04:00pm 7.8 2.5 1.9 66 2.5 SW 19 24 10 13 1016.6 1017.7 0.0
15/03:30pm 8.1 2.5 1.5 63 2.8 SW 20 32 11 17 1016.6 1017.7 0.0
15/03:00pm 7.9 1.6 1.3 63 2.8 SW 24 41 13 22 1016.4 1017.5 0.0
15/02:30pm 7.8 2.4 2.3 68 2.4 SW 20 30 11 16 1016.4 1017.5 0.0
15/02:00pm 7.3 -0.1 1.6 67 2.4 SW 30 44 16 24 1016.5 1017.6 0.0
15/01:30pm 6.7 -0.2 2.4 74 1.9 SW 28 46 15 25 1016.8 1017.9 0.0
15/01:07pm 6.5 -1.3 1.4 70 2.1 WSW 32 50 17 27 1016.7 1017.8 0.0
15/01:00pm 6.1 -1.3 1.6 73 1.9 SW 30 41 16 22 1016.8 1017.9 0.0
15/12:48pm 5.8 -2.6 1.3 73 1.9 SW 35 54 19 29 1017.0 1018.0 0.0
15/12:30pm 5.9 -3.2 2.0 76 1.7 WSW 39 54 21 29 1016.8 1017.9 0.0
15/12:01pm 6.0 -1.8 1.9 75 1.7 SW 32 50 17 27 1017.0 1018.0 0.0
15/12:00pm 6.0 -1.7 2.1 76 1.7 SW 32 46 17 25 1017.0 1018.0 0.0
15/11:30am 5.7 -2.0 2.5 80 1.4 SW 32 46 17 25 1017.3 1018.3 0.0
15/11:00am 5.5 -2.2 2.5 81 1.3 SW 32 48 17 26 1017.6 1018.7 0.0
15/10:47am 5.4 -1.9 2.6 82 1.2 SW 30 48 16 26 1017.8 1018.9 0.0
15/10:30am 5.3 -2.0 2.3 81 1.3 SW 30 46 16 25 1017.7 1018.8 0.0
15/10:06am 5.1 -1.8 2.5 83 1.1 SW 28 48 15 26 1017.7 1018.8 0.0
15/10:00am 5.1 -1.1 2.3 82 1.2 SW 24 35 13 19 1017.7 1018.8 0.0
15/09:30am 4.8 -2.9 2.3 84 1.1 SW 32 50 17 27 1017.4 1018.4 0.0
15/09:03am 4.6 -2.3 2.3 85 1.0 SW 28 46 15 25 1016.8 1017.9 0.0
15/09:00am 4.5 -2.0 2.4 86 0.9 SW 26 37 14 20 1016.8 1017.9 8.0
15/08:41am 4.4 -3.3 2.1 85 1.0 SW 32 61 17 33 1016.4 1017.5 8.0
15/08:30am 4.3 -1.9 2.2 86 0.9 SW 24 41 13 22 1016.2 1017.2 8.0
15/08:00am 4.1 -2.5 2.0 86 0.9 SW 26 43 14 23 1015.9 1016.9 8.0
15/07:30am 4.1 -4.3 1.5 83 1.1 SW 35 54 19 29 1015.7 1016.7 8.0
15/07:00am 4.2 -3.6 1.9 85 1.0 SW 32 50 17 27 1015.6 1016.6 8.0
15/06:30am 4.0 -4.0 1.7 85 1.0 SW 33 54 18 29 1014.5 1015.5 8.0
15/06:03am 4.2 -5.3 1.7 84 1.0 SW 41 63 22 34 1013.7 1014.7 8.0
15/06:00am 4.1 -5.0 1.6 84 1.0 SW 39 56 21 30 1013.6 1014.6 8.0
15/05:30am 4.1 -5.0 1.8 85 1.0 SW 39 67 21 36 1013.1 1014.1 8.0
15/05:00am 4.0 -4.7 2.0 87 0.8 SW 37 61 20 33 1012.2 1013.2 8.0
15/04:30am 3.8 -4.9 2.0 88 0.7 SW 37 56 20 30 1012.1 1013.1 8.0
15/04:00am 3.6 -5.4 2.4 92 0.5 SW 39 65 21 35 1011.2 1012.2 8.0
15/03:30am 3.4 -4.4 2.8 96 0.3 SW 33 63 18 34 1010.9 1011.9 8.0
15/03:00am 2.7 -5.6 2.3 97 0.2 SW 35 56 19 30 1010.4 1011.3 7.8
15/02:58am 2.8 -5.5 2.4 97 0.2 SW 35 56 19 30 1010.4 1011.3 7.4
15/02:30am 3.0 -4.8 2.7 98 0.1 SW 33 50 18 27 1010.0 1010.9 6.4
15/02:00am 3.4 -6.9 2.7 95 0.3 SW 46 70 25 38 1009.6 1010.6 5.0
15/01:30am 3.6 -4.6 2.9 95 0.3 WSW 35 54 19 29 1009.3 1010.2 4.4
15/01:24am 3.7 -3.5 3.0 95 0.3 SW 30 54 16 29 1009.4 1010.3 4.0
15/01:00am 4.0 -3.8 3.1 94 0.4 SW 33 48 18 26 1009.0 1009.9 3.0
15/12:31am 4.0 -2.8 3.3 95 0.3 SW 28 46 15 25 1009.0 1009.9 2.4
15/12:30am 4.1 -3.0 3.4 95 0.3 SW 30 46 16 25 1009.1 1010.0 2.4
15/12:02am 4.3 -3.2 3.4 94 0.4 SW 32 50 17 27 1009.1 1010.0 1.8
15/12:00am 4.3 -3.4 3.3 93 0.4 SW 33 50 18 27 1009.1 1010.0 1.8
 
Date/Time
EST
Temp
°C
App
Temp
°C
Dew
Point
°C
Rel
Hum
%
Delta-T
°C
Wind Press
QNH
hPa
Press
MSL
hPa
Rain since
9am
mm
Dir  Spd
km/h
Gust
km/h
Spd
kts
Gust
kts
14/11:45pm 4.7 -2.1 3.2 90 0.6 SW 28 48 15 26 1009.2 - 1.4
14/11:44pm 4.7 -2.0 3.4 91 0.6 SW 28 48 15 26 1009.1 1010.0 1.4
14/11:30pm 5.0 -1.4 3.3 89 0.7 WSW 26 37 14 20 1008.7 1009.6 1.0
14/11:00pm 4.7 -0.3 3.5 92 0.5 WSW 19 28 10 15 1009.0 1009.9 1.0
14/10:30pm 4.8 -0.3 3.3 90 0.7 WSW 19 28 10 15 1009.1 1010.0 0.8
14/10:00pm 5.1 -1.7 3.3 88 0.8 WSW 28 39 15 21 1009.1 1010.0 0.6
14/09:44pm 5.3 -2.3 3.0 85 1.0 WSW 32 50 17 27 1008.8 1009.7 0.4
14/09:30pm 5.3 -1.1 3.0 85 1.0 W 26 37 14 20 1009.0 1009.9 0.4
14/09:04pm 5.7 -1.2 2.7 81 1.3 WSW 28 46 15 25 1009.0 1009.9 0.2
14/09:03pm 5.7 -1.2 2.5 80 1.4 WSW 28 46 15 25 1009.1 - 0.2
14/09:00pm 5.6 -1.7 2.6 81 1.3 WSW 30 46 16 25 1009.1 1010.0 0.2
14/08:50pm 5.8 -1.5 2.4 79 1.5 W 30 50 16 27 1009.0 1009.9 0.2
14/08:30pm 5.6 -0.2 2.3 79 1.4 W 22 35 12 19 1009.1 1010.0 0.2
14/08:00pm 5.6 -0.6 2.3 79 1.4 WSW 24 37 13 20 1009.1 1010.0 0.2
14/07:30pm 5.7 -2.2 2.0 77 1.6 W 33 56 18 30 1009.8 1010.8 0.0
14/07:01pm 6.6 -0.6 0.7 66 2.4 W 28 46 15 25 1009.4 - 0.0
14/07:00pm 6.6 -0.6 0.7 66 2.5 W 28 46 15 25 1009.2 1010.1 0.0
14/06:30pm 6.6 -0.6 0.5 65 2.5 W 28 46 15 25 1009.1 1010.0 0.0
14/06:00pm 6.4 -1.7 -0.1 63 2.6 W 32 50 17 27 1009.2 1010.1 0.0
14/05:31pm 6.0 -1.3 -0.3 64 2.5 W 28 48 15 26 1009.4 1010.3 0.0
14/05:30pm 5.8 -1.6 -0.5 64 2.5 W 28 41 15 22 1009.6 1010.6 0.0
14/05:18pm 6.1 -1.2 -0.2 64 2.5 WNW 28 46 15 25 1009.6 1010.6 0.0
14/05:00pm 6.0 -1.0 -0.7 62 2.7 WNW 26 41 14 22 1009.7 1010.7 0.0
14/04:41pm 6.4 -1.0 -0.6 61 2.8 W 28 52 15 28 1009.7 1010.7 0.0
14/04:30pm 6.2 -0.4 -0.3 63 2.6 WNW 24 44 13 24 1010.0 1010.9 0.0
14/04:00pm 6.6 -0.4 -0.4 61 2.8 WNW 26 37 14 20 1010.0 1010.9 0.0
14/03:30pm 7.0 -1.2 -0.7 58 3.1 WNW 32 56 17 30 1010.2 1011.1 0.0
14/03:00pm 7.2 -1.2 -1.2 55 3.4 W 33 59 18 32 1010.1 1011.0 0.0
14/02:56pm 7.6 0.2 -0.8 55 3.4 WNW 28 59 15 32 1010.2 1011.1 0.0
14/02:30pm 8.0 2.3 -0.5 55 3.5 NW 19 46 10 25 1010.4 1011.3 0.0
14/02:00pm 7.5 0.1 -0.9 55 3.4 WNW 28 44 15 24 1010.7 1011.6 0.0
14/01:30pm 7.4 -0.8 0.6 62 2.8 NW 33 46 18 25 1011.2 1012.2 0.0
14/01:00pm 7.1 -1.6 -0.4 59 3.0 WNW 35 57 19 31 1012.1 1013.1 0.0
14/12:32pm 7.5 0.1 -0.7 56 3.3 WNW 28 46 15 25 1012.6 1013.6 0.0
14/12:30pm 7.4 -0.8 -0.8 56 3.3 WNW 32 46 17 25 1012.5 1013.5 0.0
14/12:05pm 7.4 0.1 -0.1 59 3.1 WNW 28 50 15 27 1013.4 - 0.0
14/12:04pm 7.3 -0.1 -0.4 58 3.1 WNW 28 50 15 27 1013.3 1014.3 0.0
14/12:00pm 7.3 0.3 -0.6 57 3.2 WNW 26 35 14 19 1013.3 1014.3 0.0
14/11:30am 6.9 0.1 -1.7 54 3.4 WNW 24 35 13 19 1013.7 1014.7 0.0
14/11:05am 6.8 -0.9 -2.9 50 3.7 W 28 48 15 26 1014.3 1015.3 0.0
14/11:00am 6.9 -0.3 -2.3 52 3.6 W 26 41 14 22 1014.3 1015.3 0.0
14/10:49am 6.8 -0.9 -2.6 51 3.6 W 28 46 15 25 1014.4 - 0.0
14/10:48am 6.8 -0.1 -2.6 51 3.6 W 24 46 13 25 1014.3 1015.3 0.0
14/10:30am 7.0 0.9 -2.2 52 3.6 W 20 35 11 19 1014.4 1015.4 0.0
14/10:00am 6.3 -0.8 -1.6 57 3.1 WNW 26 44 14 24 1014.7 1015.7 0.0
14/09:30am 6.2 -0.2 -1.4 58 3.0 WNW 22 41 12 22 1014.8 1015.8 0.0
14/09:00am 5.5 -0.3 -1.4 61 2.7 WNW 19 28 10 15 1015.0 1016.0 1.4
14/08:30am 2.8 -2.4 -2.5 68 1.9 NW 15 26 8 14 1015.2 1016.3 1.4
14/08:00am 1.6 -2.8 -2.3 75 1.4 N 11 15 6 8 1015.4 1016.5 1.4
14/07:30am 1.3 -3.9 -2.8 74 1.5 N 15 22 8 12 1015.8 1016.8 1.4
14/07:00am 1.0 -3.9 -3.3 73 1.6 N 13 15 7 8 1015.9 1016.9 1.4
14/06:30am 0.6 -3.6 -3.7 73 1.5 NNW 9 15 5 8 1016.0 1017.0 1.4
14/06:00am 1.4 -2.8 -3.7 69 1.9 NNW 9 15 5 8 1015.8 1016.8 1.4
14/05:30am 2.3 -1.8 -3.4 66 2.0 NW 9 17 5 9 1016.0 1017.0 1.4
14/05:00am 2.2 -1.9 -2.7 70 1.8 W 9 15 5 8 1016.0 1017.0 1.4

Other formats

Comma delimited format used in spreadsheet applications
http://www.bom.gov.au/fwo/IDV60801/IDV60801.94913.axf

JavaScript Object Notation format (JSON) in row-major order
http://www.bom.gov.au/fwo/IDV60801/IDV60801.94913.json

Data quality

Most of these data are generated automatically and are frequently updated. Quality checks on data are not normally performed. It is possible for incorrect values to appear. Refer to information at About Latest Weather Observations and please check the disclaimer before using these data.